createdAt,value
2024-03-14T00:01:32.421Z,63.69
2024-03-14T00:04:34.253Z,63.96
2024-03-14T00:07:35.827Z,63.94
2024-03-14T00:10:38.733Z,63.95
2024-03-14T00:13:40.352Z,63.93
2024-03-14T00:16:41.924Z,63.74
2024-03-14T00:19:43.506Z,63.76
2024-03-14T00:22:45.921Z,64.05
2024-03-14T00:25:47.504Z,64.21
2024-03-14T00:28:49.812Z,64.20
2024-03-14T00:31:53.508Z,64.22
2024-03-14T00:34:55.119Z,64.37
2024-03-14T00:37:56.840Z,64.25
2024-03-14T00:41:00.142Z,64.26
2024-03-14T00:44:02.432Z,64.29
2024-03-14T00:47:06.169Z,64.22
2024-03-14T00:50:11.478Z,64.26
2024-03-14T00:53:13.219Z,64.25
2024-03-14T00:56:14.913Z,64.19
2024-03-14T00:59:17.712Z,64.23
2024-03-14T01:02:20.642Z,64.12
2024-03-14T01:05:22.232Z,64.30
2024-03-14T01:08:23.765Z,64.17
2024-03-14T01:11:25.396Z,64.21
2024-03-14T01:14:26.987Z,64.19
2024-03-14T01:17:28.583Z,64.00
2024-03-14T01:20:30.736Z,64.24
2024-03-14T01:23:32.290Z,64.11
2024-03-14T01:26:33.911Z,64.39
2024-03-14T01:29:35.534Z,64.64
2024-03-14T01:32:37.212Z,64.33
2024-03-14T01:35:39.013Z,64.39
2024-03-14T01:38:40.626Z,64.31
2024-03-14T01:41:42.373Z,64.29
2024-03-14T01:45:15.858Z,64.27
2024-03-14T01:48:17.754Z,64.33
2024-03-14T01:51:19.683Z,64.28
2024-03-14T01:54:21.477Z,64.52
2024-03-14T01:57:23.128Z,64.34
2024-03-14T02:00:34.682Z,64.49
2024-03-14T02:03:37.793Z,64.32
2024-03-14T02:07:19.005Z,64.36
2024-03-14T02:10:25.473Z,64.53
2024-03-14T02:13:27.303Z,64.42
2024-03-14T02:16:29.396Z,64.13
2024-03-14T02:19:31.820Z,64.59
2024-03-14T02:22:33.354Z,64.57
2024-03-14T02:25:36.680Z,64.61
2024-03-14T02:28:38.519Z,64.68
2024-03-14T02:31:40.146Z,64.64
2024-03-14T02:34:41.854Z,64.72
2024-03-14T02:37:45.301Z,64.95
2024-03-14T02:40:46.967Z,64.77
2024-03-14T02:43:54.524Z,64.63
2024-03-14T02:46:57.451Z,64.37
2024-03-14T02:49:59.224Z,64.39
2024-03-14T02:53:00.826Z,64.59
2024-03-14T02:56:02.922Z,64.45
2024-03-14T02:59:04.478Z,64.38
2024-03-14T03:02:12.068Z,64.49
2024-03-14T03:05:13.871Z,64.30
2024-03-14T03:08:18.275Z,64.38
2024-03-14T03:11:19.934Z,64.27
2024-03-14T03:14:22.454Z,64.30
2024-03-14T03:17:24.175Z,64.54
2024-03-14T03:20:25.797Z,64.33
2024-03-14T03:23:27.382Z,64.34
2024-03-14T03:26:28.936Z,64.40
2024-03-14T03:29:30.476Z,64.51
2024-03-14T03:32:32.056Z,64.22
2024-03-14T03:35:34.432Z,64.36
2024-03-14T03:38:39.225Z,64.30
2024-03-14T03:41:41.774Z,64.67
2024-03-14T03:44:43.381Z,64.38
2024-03-14T03:47:44.998Z,64.35
2024-03-14T03:50:46.574Z,64.30
2024-03-14T03:53:48.195Z,64.61
2024-03-14T03:56:49.812Z,64.55
2024-03-14T03:59:52.071Z,64.49
2024-03-14T04:02:53.815Z,64.45
2024-03-14T04:05:56.628Z,64.60
2024-03-14T04:08:58.213Z,64.39
2024-03-14T04:11:59.887Z,64.57
2024-03-14T04:15:01.602Z,64.37
2024-03-14T04:18:07.095Z,64.40
2024-03-14T04:21:15.299Z,64.48
2024-03-14T04:24:18.744Z,64.57
2024-03-14T04:27:21.528Z,64.76
2024-03-14T04:30:24.386Z,64.77
2024-03-14T04:33:26.173Z,64.58
2024-03-14T04:36:28.054Z,64.60
2024-03-14T04:39:29.763Z,64.69
2024-03-14T04:42:31.495Z,64.23
2024-03-14T04:45:33.982Z,64.80
2024-03-14T04:48:37.418Z,64.54
2024-03-14T04:51:39.219Z,64.65
2024-03-14T04:54:41.816Z,64.65
2024-03-14T04:57:44.994Z,64.65
2024-03-14T05:00:48.160Z,64.49
2024-03-14T05:03:49.806Z,64.02
2024-03-14T05:06:52.916Z,64.47
2024-03-14T05:09:55.338Z,64.67
2024-03-14T05:12:58.317Z,64.19
2024-03-14T05:15:59.924Z,64.61
2024-03-14T05:19:01.990Z,64.52
2024-03-14T05:22:05.312Z,64.48
2024-03-14T05:25:12.417Z,64.51
2024-03-14T05:28:14.277Z,64.30
2024-03-14T05:31:15.922Z,64.26
2024-03-14T05:34:17.620Z,64.53
2024-03-14T05:37:19.346Z,64.69
2024-03-14T05:40:21.076Z,64.58
2024-03-14T05:43:22.713Z,64.48
2024-03-14T05:46:24.361Z,64.44
2024-03-14T05:49:25.977Z,64.53
2024-03-14T05:52:27.849Z,64.54
2024-03-14T05:55:30.863Z,64.62
2024-03-14T05:58:32.592Z,64.46
2024-03-14T06:01:34.287Z,64.78
2024-03-14T06:04:36.238Z,64.29
2024-03-14T06:07:37.822Z,64.45
2024-03-14T06:10:39.629Z,64.47
2024-03-14T06:13:41.367Z,64.21
2024-03-14T06:16:43.172Z,64.46
2024-03-14T06:19:47.261Z,64.58
2024-03-14T06:22:49.280Z,64.24
2024-03-14T06:25:51.888Z,64.20
2024-03-14T06:28:55.482Z,64.19
2024-03-14T06:31:57.670Z,64.00
2024-03-14T06:34:59.273Z,63.82
2024-03-14T06:38:01.057Z,63.96
2024-03-14T06:41:02.897Z,63.71
2024-03-14T06:44:04.694Z,63.89
2024-03-14T06:47:06.961Z,63.71
2024-03-14T06:50:10.960Z,63.55
2024-03-14T06:53:13.246Z,63.78
2024-03-14T06:56:16.352Z,63.55
2024-03-14T06:59:18.163Z,63.74
2024-03-14T07:02:20.053Z,63.55
2024-03-14T07:05:25.294Z,63.54
2024-03-14T07:08:27.772Z,63.67
2024-03-14T07:11:30.019Z,62.24
2024-03-14T07:14:31.908Z,60.88
2024-03-14T07:17:36.073Z,60.08
2024-03-14T07:20:40.524Z,59.74
2024-03-14T07:23:42.730Z,59.78
2024-03-14T07:26:45.027Z,59.81
2024-03-14T07:29:48.630Z,59.56
2024-03-14T07:32:50.279Z,60.77
2024-03-14T07:35:52.102Z,61.77
2024-03-14T07:38:53.780Z,61.81
2024-03-14T07:41:55.472Z,61.78
2024-03-14T07:44:57.105Z,62.01
2024-03-14T07:47:58.732Z,61.83
2024-03-14T07:51:02.424Z,61.70
2024-03-14T07:54:04.159Z,61.51
2024-03-14T07:57:05.773Z,61.93
2024-03-14T08:00:10.793Z,61.89
2024-03-14T08:03:13.058Z,62.20
2024-03-14T08:06:19.642Z,62.00
2024-03-14T08:09:27.141Z,62.03
2024-03-14T08:12:35.048Z,62.00
2024-03-14T08:15:43.553Z,62.21
2024-03-14T08:18:48.288Z,62.49
2024-03-14T08:21:50.061Z,62.40
2024-03-14T08:24:53.853Z,62.60
2024-03-14T08:27:55.653Z,62.53
2024-03-14T08:30:59.283Z,62.26
2024-03-14T08:34:03.646Z,62.47
2024-03-14T08:37:07.489Z,62.17
2024-03-14T08:40:10.913Z,62.47
2024-03-14T08:43:13.229Z,62.64
2024-03-14T08:46:16.683Z,62.66
2024-03-14T08:49:18.349Z,62.45
2024-03-14T08:52:22.481Z,62.51
2024-03-14T08:55:44.371Z,62.97
2024-03-14T08:58:48.189Z,62.57
2024-03-14T09:01:49.776Z,62.61
2024-03-14T09:04:52.642Z,62.66
2024-03-14T09:07:55.465Z,62.63
2024-03-14T09:10:57.641Z,61.93
2024-03-14T09:14:00.256Z,60.40
2024-03-14T09:17:05.693Z,59.92
2024-03-14T09:20:10.098Z,59.50
2024-03-14T09:23:17.242Z,61.43
2024-03-14T09:26:19.446Z,61.46
2024-03-14T09:29:22.960Z,61.38
2024-03-14T09:32:31.060Z,61.64
2024-03-14T09:35:34.519Z,61.78
2024-03-14T09:38:40.167Z,61.99
2024-03-14T09:41:41.987Z,61.74
2024-03-14T09:44:44.876Z,61.93
2024-03-14T09:47:46.654Z,61.93
2024-03-14T09:50:57.295Z,62.01
2024-03-14T09:54:01.221Z,61.89
2024-03-14T09:57:05.302Z,61.75
2024-03-14T10:00:15.197Z,61.90
2024-03-14T10:03:17.145Z,61.95
2024-03-14T10:06:22.131Z,61.93
2024-03-14T10:09:27.815Z,61.83
2024-03-14T10:12:30.372Z,61.98
2024-03-14T10:15:38.703Z,62.23
2024-03-14T10:18:40.956Z,62.40
2024-03-14T10:21:42.782Z,62.63
2024-03-14T10:24:44.513Z,62.64
2024-03-14T10:27:53.618Z,62.73
2024-03-14T10:31:03.711Z,62.58
2024-03-14T10:34:09.195Z,62.49
2024-03-14T10:37:16.210Z,62.49
2024-03-14T10:40:19.892Z,62.76
2024-03-14T10:43:22.178Z,62.76
2024-03-14T10:46:25.403Z,62.78
2024-03-14T10:49:28.363Z,62.55
2024-03-14T10:52:30.053Z,62.50
2024-03-14T10:55:33.811Z,62.53
2024-03-14T10:58:37.348Z,62.76
2024-03-14T11:01:41.324Z,62.63
2024-03-14T11:04:43.139Z,62.71
2024-03-14T11:07:46.948Z,62.65
2024-03-14T11:10:55.685Z,62.67
2024-03-14T11:14:00.052Z,62.81
2024-03-14T11:17:04.254Z,62.89
2024-03-14T11:20:10.484Z,62.98
2024-03-14T11:23:16.710Z,62.74
2024-03-14T11:26:20.355Z,62.66
2024-03-14T11:29:23.274Z,62.55
2024-03-14T11:32:32.308Z,62.19
2024-03-14T11:35:39.303Z,62.56
2024-03-14T11:38:41.566Z,62.70
2024-03-14T11:41:43.554Z,62.89
2024-03-14T11:44:46.941Z,63.14
2024-03-14T11:47:51.606Z,63.21
2024-03-14T11:50:59.664Z,63.28
2024-03-14T11:54:04.052Z,63.60
2024-03-14T11:57:06.590Z,63.43
2024-03-14T12:00:10.648Z,63.52
2024-03-14T12:03:13.050Z,63.50
2024-03-14T12:06:19.178Z,63.39
2024-03-14T12:09:22.504Z,63.43
2024-03-14T12:12:24.923Z,63.33
2024-03-14T12:15:26.704Z,63.36
2024-03-14T12:18:29.003Z,63.43
2024-03-14T12:21:30.714Z,63.36
2024-03-14T12:24:32.394Z,63.35
2024-03-14T12:27:34.075Z,63.40
2024-03-14T12:30:41.011Z,63.32
2024-03-14T12:33:42.856Z,63.27
2024-03-14T12:36:47.531Z,63.14
2024-03-14T12:39:50.174Z,63.43
2024-03-14T12:42:54.983Z,63.48
2024-03-14T12:45:56.953Z,63.69
2024-03-14T12:49:00.440Z,63.88
2024-03-14T12:52:03.727Z,63.76
2024-03-14T12:55:17.953Z,63.74
2024-03-14T12:58:23.491Z,63.93
2024-03-14T13:01:35.603Z,63.60
2024-03-14T13:04:41.678Z,63.54
2024-03-14T13:07:44.105Z,63.50
2024-03-14T13:10:46.708Z,63.69
2024-03-14T13:13:50.914Z,63.53
2024-03-14T13:17:17.430Z,63.71
2024-03-14T13:20:19.932Z,63.86
2024-03-14T13:23:21.789Z,63.79
2024-03-14T13:26:24.700Z,63.84
2024-03-14T13:29:26.899Z,63.77
2024-03-14T13:32:29.321Z,63.52
2024-03-14T13:35:30.964Z,64.12
2024-03-14T13:38:32.791Z,64.88
2024-03-14T13:41:36.292Z,65.25
2024-03-14T13:44:38.073Z,65.40
2024-03-14T13:47:43.238Z,65.15
2024-03-14T13:50:45.616Z,65.64
2024-03-14T13:53:51.959Z,65.61
2024-03-14T13:56:55.402Z,65.66
2024-03-14T14:00:02.303Z,65.78
2024-03-14T14:03:14.445Z,65.68
2024-03-14T14:06:18.151Z,65.52
2024-03-14T14:09:20.217Z,65.40
2024-03-14T14:12:24.107Z,65.46
2024-03-14T14:15:26.644Z,65.50
2024-03-14T14:18:28.360Z,65.06
2024-03-14T14:21:31.386Z,65.52
2024-03-14T14:24:33.148Z,65.61
2024-03-14T14:27:36.218Z,65.08
2024-03-14T14:30:40.927Z,64.84
2024-03-14T14:33:42.765Z,64.59
2024-03-14T14:36:44.589Z,64.98
2024-03-14T14:39:46.378Z,64.76
2024-03-14T14:42:48.123Z,64.74
2024-03-14T14:45:49.888Z,64.30
2024-03-14T14:48:54.402Z,64.65
2024-03-14T14:51:59.002Z,64.89
2024-03-14T14:55:05.111Z,64.54
2024-03-14T14:58:28.382Z,64.73
2024-03-14T15:01:30.086Z,64.77
2024-03-14T15:04:32.616Z,65.14
2024-03-14T15:07:35.708Z,64.41
2024-03-14T15:10:39.773Z,64.65
2024-03-14T15:13:41.488Z,64.37
2024-03-14T15:16:43.393Z,64.58
2024-03-14T15:19:46.156Z,64.38
2024-03-14T15:22:49.540Z,64.11
2024-03-14T15:25:52.318Z,64.17
2024-03-14T15:28:53.999Z,64.03
2024-03-14T15:32:02.258Z,64.13
2024-03-14T15:35:04.126Z,64.17
2024-03-14T15:38:07.434Z,64.10
2024-03-14T15:41:09.769Z,64.12
2024-03-14T15:44:11.472Z,64.18
2024-03-14T15:47:13.765Z,64.24
2024-03-14T15:50:16.740Z,63.97
2024-03-14T15:53:18.455Z,64.21
2024-03-14T15:56:20.262Z,64.40
2024-03-14T15:59:22.837Z,64.15
2024-03-14T16:02:25.135Z,64.09
2024-03-14T16:05:29.540Z,64.31
2024-03-14T16:08:44.606Z,63.88
2024-03-14T16:11:50.719Z,64.09
2024-03-14T16:14:52.357Z,64.00
2024-03-14T16:17:55.852Z,63.77
2024-03-14T16:20:58.233Z,63.81
2024-03-14T16:24:05.546Z,63.81
2024-03-14T16:27:07.320Z,63.39
2024-03-14T16:30:09.435Z,64.00
2024-03-14T16:33:12.692Z,63.75
2024-03-14T16:36:15.664Z,63.84
2024-03-14T16:39:20.520Z,63.70
2024-03-14T16:42:24.478Z,63.93
2024-03-14T16:45:35.916Z,64.01
2024-03-14T16:48:37.735Z,64.19
2024-03-14T16:51:41.198Z,64.04
2024-03-14T16:54:43.135Z,64.15
2024-03-14T16:57:46.427Z,63.86
2024-03-14T17:00:48.220Z,64.33
2024-03-14T17:03:50.565Z,64.12
2024-03-14T17:06:52.261Z,64.10
2024-03-14T17:09:53.873Z,64.55
2024-03-14T17:12:55.807Z,64.29
2024-03-14T17:16:01.858Z,64.31
2024-03-14T17:19:03.864Z,64.25
2024-03-14T17:22:05.881Z,64.08
2024-03-14T17:25:08.506Z,64.33
2024-03-14T17:28:11.086Z,64.34
2024-03-14T17:31:14.415Z,64.45
2024-03-14T17:34:16.262Z,64.81
2024-03-14T17:37:18.007Z,64.21
2024-03-14T17:40:20.629Z,63.80
2024-03-14T17:43:23.530Z,64.32
2024-03-14T17:46:25.620Z,63.95
2024-03-14T17:49:27.538Z,64.08
2024-03-14T17:52:29.244Z,64.05
2024-03-14T17:55:30.963Z,64.12
2024-03-14T17:58:32.681Z,64.02
2024-03-14T18:01:37.849Z,63.86
2024-03-14T18:04:39.582Z,63.70
2024-03-14T18:07:44.952Z,63.82
2024-03-14T18:10:50.723Z,63.38
2024-03-14T18:13:52.884Z,63.58
2024-03-14T18:16:56.107Z,63.49
2024-03-14T18:19:57.813Z,63.52
2024-03-14T18:22:59.536Z,63.31
2024-03-14T18:26:01.540Z,63.51
2024-03-14T18:29:03.296Z,63.55
2024-03-14T18:32:13.757Z,63.93
2024-03-14T18:35:18.897Z,63.75
2024-03-14T18:38:20.859Z,63.93
2024-03-14T18:41:23.705Z,63.74
2024-03-14T18:44:29.553Z,64.13
2024-03-14T18:47:31.170Z,64.05
2024-03-14T18:50:32.726Z,64.03
2024-03-14T18:53:34.369Z,64.22
2024-03-14T18:56:36.800Z,64.20
2024-03-14T18:59:38.497Z,64.56
2024-03-14T19:02:40.129Z,64.78
2024-03-14T19:05:42.484Z,65.07
2024-03-14T19:08:44.300Z,64.63
2024-03-14T19:11:46.380Z,64.88
2024-03-14T19:14:50.393Z,64.63
2024-03-14T19:17:52.118Z,64.97
2024-03-14T19:20:54.575Z,64.93
2024-03-14T19:23:56.289Z,64.75
2024-03-14T19:27:00.076Z,64.95
2024-03-14T19:30:04.147Z,64.88
2024-03-14T19:33:07.409Z,64.87
2024-03-14T19:36:10.288Z,64.60
2024-03-14T19:39:12.421Z,64.46
2024-03-14T19:42:18.399Z,64.90
2024-03-14T19:45:22.315Z,64.59
2024-03-14T19:48:24.048Z,64.61
2024-03-14T19:51:25.714Z,64.44
2024-03-14T19:54:27.406Z,64.36
2024-03-14T19:57:30.619Z,64.19
2024-03-14T20:00:32.409Z,64.18
2024-03-14T20:03:34.095Z,64.09
2024-03-14T20:06:36.026Z,64.06
2024-03-14T20:09:38.779Z,64.16
2024-03-14T20:12:40.478Z,63.95
2024-03-14T20:15:42.680Z,63.99
2024-03-14T20:18:44.811Z,63.96
2024-03-14T20:21:46.547Z,64.11
2024-03-14T20:24:49.683Z,63.82
2024-03-14T20:27:51.767Z,63.16
2024-03-14T20:30:53.628Z,63.33
2024-03-14T20:33:57.012Z,63.17
2024-03-14T20:36:58.797Z,63.49
2024-03-14T20:40:02.003Z,63.53
2024-03-14T20:43:05.001Z,63.19
2024-03-14T20:46:06.956Z,63.54
2024-03-14T20:49:09.760Z,64.46
2024-03-14T20:52:14.237Z,63.62
2024-03-14T20:55:22.645Z,63.72
2024-03-14T20:58:28.918Z,63.10
2024-03-14T21:01:31.857Z,63.86
2024-03-14T21:04:33.821Z,63.86
2024-03-14T21:07:35.671Z,63.87
2024-03-14T21:10:38.748Z,63.87
2024-03-14T21:13:41.323Z,63.69
2024-03-14T21:16:44.080Z,63.63
2024-03-14T21:19:49.126Z,63.50
2024-03-14T21:22:51.391Z,63.23
2024-03-14T21:25:53.684Z,63.05
2024-03-14T21:28:57.520Z,62.90
2024-03-14T21:31:59.745Z,62.77
2024-03-14T21:35:01.355Z,62.72
2024-03-14T21:38:05.139Z,62.55
2024-03-14T21:41:06.747Z,63.31
2024-03-14T21:44:11.852Z,63.02
2024-03-14T21:47:13.481Z,63.35
2024-03-14T21:50:17.565Z,63.67
2024-03-14T21:53:19.755Z,63.82
2024-03-14T21:56:21.412Z,63.42
2024-03-14T21:59:23.027Z,62.44
2024-03-14T22:02:24.750Z,62.91
2024-03-14T22:05:26.637Z,62.95
2024-03-14T22:08:30.272Z,62.54
2024-03-14T22:11:35.093Z,63.18
2024-03-14T22:14:39.244Z,63.52
2024-03-14T22:17:41.462Z,63.46
2024-03-14T22:20:43.179Z,63.74
2024-03-14T22:23:44.963Z,63.75
2024-03-14T22:26:46.629Z,64.10
2024-03-14T22:29:48.397Z,63.78
2024-03-14T22:32:50.375Z,63.48
2024-03-14T22:35:52.353Z,63.53
2024-03-14T22:38:54.086Z,63.65
2024-03-14T22:41:55.939Z,63.05
2024-03-14T22:44:58.490Z,63.57
2024-03-14T22:48:00.040Z,63.79
2024-03-14T22:51:01.925Z,64.18
2024-03-14T22:54:03.788Z,63.98
2024-03-14T22:57:07.095Z,64.20
2024-03-14T23:00:20.256Z,64.28
2024-03-14T23:03:21.980Z,64.24
2024-03-14T23:06:23.716Z,63.62
2024-03-14T23:09:25.435Z,64.20
2024-03-14T23:12:27.093Z,64.29
2024-03-14T23:15:31.431Z,63.91
2024-03-14T23:18:33.118Z,64.12
2024-03-14T23:21:36.011Z,63.73
2024-03-14T23:24:38.255Z,63.41
2024-03-14T23:27:40.207Z,62.26
2024-03-14T23:30:49.862Z,62.76
2024-03-14T23:33:51.901Z,62.85
2024-03-14T23:36:53.874Z,63.04
2024-03-14T23:39:55.748Z,63.10
2024-03-14T23:42:57.469Z,63.01
2024-03-14T23:45:59.356Z,62.96
2024-03-14T23:49:01.523Z,62.94
2024-03-14T23:52:03.263Z,63.04
2024-03-14T23:55:07.946Z,62.78
2024-03-14T23:58:11.119Z,63.01
